Felton, DE (19943)

5:49 PM EDT on September 02, 2015 (GMT -0400)
McGinnis Pond | | Change Station
CLOSE
Current Station
Personal Weather Station
Location: Felton, DE
Elevation: 30 ft
Nearby Weather Stations

Elev 30 ft 39.03 °N, 75.52 °W | Updated 13 minutes ago

Partly Cloudy
Partly Cloudy
83.5 °F
Feels Like 90 °F
N
0.0
Wind Variable Wind from SE
Gusts 1.0 mph

Today
High -- | Low -- °F
--% Chance of Precip.
Yesterday
High -- | Low -- °F
Precip. -- in
6:31 AM 7:31 PM
Waning Gibbous, 77% visible
Pressure 29.93 in
Visibility 10.0 miles
Clouds Clear
Heat Index 90 °F
Dew Point 74 °F
Humidity 73%
Rainfall 0.02 in
Snow Depth Not available.
UV 3 out of 12
Pollen 9.80 out of 12
Air Quality Not available.
Flu Activity Not available.
METAR KDOV 022058Z AUTO 12005KT 10SM CLR 29/22 A2992 RMK AO2 SLP135 T02860217 57016 VISNO RWY19 CHINO RWY19 $
Pressure 29.93 in
Visibility 10.0 miles
Clouds Clear
Heat Index 90 °F
Dew Point 74 °F
Humidity 73%
Rainfall 0.02 in
Snow Depth Not available.
UV 3 out of 12
Pollen 9.80 out of 12
Air Quality Not available.
Flu Activity Not available.
METAR KDOV 022058Z AUTO 12005KT 10SM CLR 29/22 A2992 RMK AO2 SLP135 T02860217 57016 VISNO RWY19 CHINO RWY19 $

10-Day Weather Forecast

×

Almanac

Astronomy

Sep. 02, 2015 Rise Set
Actual Time
Civil Twilight
Nautical Twilight
Astronomical Twilight
Moon
Length of Visible Light
Length of Day
Tomorrow will be .
, % of the Moon is Illuminated

Today's Extremes

State Highs State Lows

Community

WunderPhotos

Upload Photos

1,851,818 photos uploaded!

WunderBlogs® & News

Nearby

Air Quality

  Air Quality AQ Index Pollutant
Not available.

Snow Depth

Station Depth Elevation

Earthquake Activity

City Distance Mag. Time & Date
Minimum magnitude displayed is 2.5.

Coastal Water Temperatures

Place Temperature

Stations

Nearby Weather Stations

Station Location Temp. Windchill Dew Point Humidity Wind Precip. Elev Updated Type